Time;durP1;ratioP1;P1;durP2;ratioP2;P2;SDS_P1;SDS_P2;PMS_P1;PMS_P2;Temp;Humidity;BMP_temperature;BMP_pressure;BME280_temperature;BME280_humidity;BME280_pressure;Samples;Min_cycle;Max_cycle;Signal;HPM_P1;HPM_P2
2022/06/05 00:01:53;;;;;;;4.10;3.80;;;22.00;73.40;;;;;;5076292;28;20199;-69
2022/06/05 00:04:41;;;;;;;3.58;3.28;;;22.00;73.40;;;;;;5076611;28;20184;-69
2022/06/05 00:07:31;;;;;;;2.92;2.70;;;21.90;73.40;;;;;;5056650;28;20574;-69
2022/06/05 00:10:24;;;;;;;3.10;2.90;;;21.90;73.50;;;;;;5056586;28;20169;-69
2022/06/05 00:13:14;;;;;;;4.05;3.75;;;22.00;73.30;;;;;;5056422;28;20223;-69
2022/06/05 00:15:41;;;;;;;4.57;4.18;;;21.90;73.40;;;;;;5056676;28;20206;-69
2022/06/05 00:18:07;;;;;;;4.00;3.70;;;21.90;73.50;;;;;;5056474;28;20208;-69
2022/06/05 00:20:33;;;;;;;3.92;3.63;;;21.90;73.50;;;;;;5056079;28;20177;-69
2022/06/05 00:22:59;;;;;;;3.45;3.22;;;22.00;73.50;;;;;;5056389;28;20200;-69
2022/06/05 00:25:51;;;;;;;3.75;3.28;;;21.90;73.60;;;;;;5055845;28;20200;-69
2022/06/05 00:28:29;;;;;;;2.97;2.78;;;21.90;73.70;;;;;;5067550;28;20193;-69
2022/06/05 00:31:32;;;;;;;3.20;3.00;;;21.90;73.70;;;;;;5076095;28;20246;-69
2022/06/05 00:33:58;;;;;;;3.88;3.58;;;22.00;73.60;;;;;;5076279;28;20168;-69
2022/06/05 00:36:40;;;;;;;4.30;3.95;;;22.00;73.60;;;;;;5076066;28;20217;-69
2022/06/05 00:39:23;;;;;;;3.90;3.60;;;21.90;73.60;;;;;;5076305;28;20180;-69
2022/06/05 00:42:03;;;;;;;3.88;3.45;;;21.90;73.90;;;;;;5075856;28;20212;-69
2022/06/05 00:44:40;;;;;;;3.63;3.22;;;22.00;74.00;;;;;;5076180;28;20173;-69
2022/06/05 00:47:11;;;;;;;3.35;3.05;;;22.00;73.80;;;;;;5076254;28;20208;-69
2022/06/05 00:49:44;;;;;;;3.15;2.95;;;21.90;73.90;;;;;;5075283;28;20196;-69
2022/06/05 00:52:14;;;;;;;3.60;3.35;;;21.90;73.70;;;;;;5075465;28;20203;-69
2022/06/05 00:54:40;;;;;;;3.70;3.40;;;21.90;73.80;;;;;;5075341;28;20203;-69
2022/06/05 00:57:10;;;;;;;3.85;3.55;;;22.00;73.80;;;;;;5075391;28;20227;-69
2022/06/05 00:59:39;;;;;;;4.10;3.80;;;21.90;73.60;;;;;;5075233;28;20234;-69
2022/06/05 01:02:08;;;;;;;4.10;3.80;;;22.00;73.80;;;;;;5075933;28;20229;-70
2022/06/05 01:04:40;;;;;;;3.95;3.60;;;21.90;73.80;;;;;;5075338;28;20195;-69
2022/06/05 01:07:07;;;;;;;4.30;4.00;;;22.00;73.80;;;;;;5075269;28;20208;-69
2022/06/05 01:09:34;;;;;;;3.90;3.60;;;22.00;74.00;;;;;;5074390;28;20176;-68
2022/06/05 01:12:04;;;;;;;4.03;3.72;;;22.00;73.90;;;;;;5075525;28;20209;-69
2022/06/05 01:15:07;;;;;;;3.22;2.97;;;22.00;73.90;;;;;;5075186;28;20185;-69
2022/06/05 01:17:55;;;;;;;3.20;3.00;;;21.90;73.80;;;;;;5075085;28;20220;-69
2022/06/05 01:20:43;;;;;;;3.33;3.13;;;21.90;73.90;;;;;;5074830;28;20177;-69
2022/06/05 01:23:27;;;;;;;4.13;3.83;;;21.90;73.70;;;;;;5075030;28;20267;-69
2022/06/05 01:26:07;;;;;;;3.58;3.38;;;22.00;73.70;;;;;;5075000;28;20185;-69
2022/06/05 01:29:07;;;;;;;3.83;3.53;;;21.90;73.80;;;;;;5075090;28;20197;-69
2022/06/05 01:31:47;;;;;;;3.30;3.10;;;21.90;73.90;;;;;;5066692;28;20256;-69
2022/06/05 01:34:31;;;;;;;3.33;3.13;;;22.00;74.00;;;;;;5075014;28;20222;-69
2022/06/05 01:37:12;;;;;;;4.45;4.05;;;21.90;73.80;;;;;;5074962;28;20196;-69
2022/06/05 01:40:00;;;;;;;4.25;3.85;;;21.90;73.80;;;;;;5074595;28;20180;-68
2022/06/05 01:42:33;;;;;;;3.47;3.17;;;21.90;73.70;;;;;;5075095;28;20334;-69
2022/06/05 01:45:08;;;;;;;3.45;3.25;;;21.90;73.70;;;;;;5074873;28;20180;-69
2022/06/05 01:47:39;;;;;;;3.70;3.40;;;22.00;73.90;;;;;;5091458;28;20204;-69
2022/06/05 01:50:19;;;;;;;2.85;2.67;;;21.90;73.70;;;;;;5074599;28;20553;-69
2022/06/05 01:52:56;;;;;;;3.45;3.25;;;21.90;73.70;;;;;;5074969;28;20221;-69
2022/06/05 01:55:45;;;;;;;4.03;3.72;;;21.90;73.70;;;;;;5074531;28;20264;-69
2022/06/05 01:58:16;;;;;;;4.20;3.90;;;21.90;73.60;;;;;;5074547;28;20201;-69
2022/06/05 02:00:49;;;;;;;4.68;4.32;;;21.90;73.60;;;;;;5074448;28;20181;-69
2022/06/05 02:04:00;;;;;;;3.63;3.42;;;22.00;73.70;;;;;;5074478;28;20184;-68
2022/06/05 02:06:55;;;;;;;3.22;3.03;;;21.90;73.60;;;;;;5063633;28;20196;-69
2022/06/05 02:09:40;;;;;;;3.50;3.30;;;21.90;73.70;;;;;;5074656;28;20171;-69
2022/06/05 02:12:09;;;;;;;4.55;4.20;;;21.90;73.60;;;;;;5074531;28;20200;-69
2022/06/05 02:14:37;;;;;;;4.15;3.85;;;21.90;73.60;;;;;;5075033;28;20246;-69
2022/06/05 02:17:05;;;;;;;4.32;4.03;;;21.90;73.60;;;;;;5074293;28;20203;-69
2022/06/05 02:19:34;;;;;;;3.90;3.60;;;21.90;73.60;;;;;;5075225;28;20177;-69
2022/06/05 02:22:15;;;;;;;4.13;3.75;;;21.90;73.60;;;;;;5078501;28;20191;-69
2022/06/05 02:24:40;;;;;;;3.60;3.40;;;21.90;73.60;;;;;;5078558;28;20226;-69
2022/06/05 02:27:07;;;;;;;3.58;3.33;;;21.90;73.60;;;;;;5077969;28;20201;-69
2022/06/05 02:29:33;;;;;;;3.65;3.42;;;21.90;73.60;;;;;;5078685;28;20219;-69
2022/06/05 02:32:05;;;;;;;3.85;3.55;;;21.90;73.70;;;;;;5078263;28;20243;-69
2022/06/05 02:35:14;;;;;;;3.78;3.47;;;21.90;73.50;;;;;;5078390;28;20648;-69
2022/06/05 02:38:01;;;;;;;4.30;4.00;;;21.90;73.60;;;;;;5078367;28;20204;-69
2022/06/05 02:40:55;;;;;;;4.57;4.28;;;21.90;73.60;;;;;;5070127;28;20197;-69
2022/06/05 02:43:44;;;;;;;3.67;3.42;;;21.90;73.50;;;;;;5089327;28;20173;-68
2022/06/05 02:46:27;;;;;;;3.80;3.50;;;22.00;73.70;;;;;;5094971;28;20183;-69
2022/06/05 02:49:05;;;;;;;3.40;3.20;;;21.90;73.50;;;;;;5095066;28;20256;-69
2022/06/05 02:51:39;;;;;;;4.10;3.80;;;21.90;73.40;;;;;;5077772;28;20213;-69
2022/06/05 02:54:06;;;;;;;4.50;4.20;;;21.90;73.50;;;;;;5078046;28;20164;-69
2022/06/05 02:56:32;;;;;;;4.40;4.00;;;21.90;73.50;;;;;;5077785;28;20177;-69
2022/06/05 02:59:02;;;;;;;4.38;4.07;;;21.90;73.50;;;;;;5094673;28;20188;-69
2022/06/05 03:04:13;;;;;;;3.33;3.10;;;21.90;73.40;;;;;;5111779;28;20208;-69
2022/06/05 03:06:41;;;;;;;3.40;3.20;;;21.90;73.40;;;;;;5094680;28;20181;-69
2022/06/05 03:09:08;;;;;;;3.40;3.20;;;21.90;73.30;;;;;;5077643;28;20180;-69
2022/06/05 03:11:34;;;;;;;3.72;3.42;;;21.90;73.40;;;;;;5077070;28;20702;-69
2022/06/05 03:14:00;;;;;;;3.95;3.65;;;21.90;73.40;;;;;;5077631;28;20177;-69
2022/06/05 03:16:28;;;;;;;3.65;3.35;;;21.90;73.50;;;;;;5077376;28;20188;-69
2022/06/05 03:18:54;;;;;;;3.83;3.53;;;21.90;73.40;;;;;;5077413;28;20184;-69
2022/06/05 03:21:20;;;;;;;3.30;3.03;;;21.90;73.40;;;;;;5076963;28;20192;-69
2022/06/05 03:23:47;;;;;;;3.47;3.17;;;21.90;73.40;;;;;;5077274;28;20204;-69
2022/06/05 03:26:13;;;;;;;3.28;3.08;;;21.90;73.40;;;;;;5077306;28;20636;-69
2022/06/05 03:28:40;;;;;;;3.72;3.50;;;21.90;73.30;;;;;;5094019;28;20234;-69
2022/06/05 03:31:08;;;;;;;4.57;4.18;;;21.90;73.40;;;;;;5075944;28;20213;-69
2022/06/05 03:33:37;;;;;;;4.05;3.75;;;21.90;73.30;;;;;;5077086;28;20521;-69
2022/06/05 03:36:12;;;;;;;4.32;4.00;;;21.90;73.20;;;;;;5077090;28;20180;-69
2022/06/05 03:38:39;;;;;;;4.18;3.88;;;21.90;73.30;;;;;;5076927;28;20204;-69
2022/06/05 03:41:08;;;;;;;4.10;3.80;;;21.90;73.30;;;;;;5076364;28;20181;-69
2022/06/05 03:43:35;;;;;;;4.30;4.00;;;21.90;73.20;;;;;;5076937;28;20185;-69
2022/06/05 03:46:04;;;;;;;4.10;3.80;;;21.90;73.20;;;;;;5077280;28;20177;-69
2022/06/05 03:48:30;;;;;;;4.18;3.88;;;21.90;73.30;;;;;;5076745;28;20204;-68
2022/06/05 03:50:56;;;;;;;3.63;3.40;;;21.90;73.30;;;;;;5076572;28;20204;-69
2022/06/05 03:53:22;;;;;;;3.88;3.58;;;21.90;73.20;;;;;;5076847;28;20199;-69
2022/06/05 03:55:48;;;;;;;3.50;3.30;;;21.90;73.20;;;;;;5076729;28;20224;-69
2022/06/05 03:58:14;;;;;;;3.92;3.63;;;21.90;73.10;;;;;;5110759;28;20283;-69
2022/06/05 04:00:42;;;;;;;3.80;3.50;;;21.90;73.20;;;;;;5076079;28;20307;-69
2022/06/05 04:03:08;;;;;;;3.88;3.58;;;21.90;73.10;;;;;;5076705;28;20688;-69
2022/06/05 04:05:34;;;;;;;2.80;2.70;;;21.90;73.10;;;;;;5076620;28;20189;-69
2022/06/05 04:08:00;;;;;;;3.63;3.33;;;21.90;73.10;;;;;;5076532;28;20740;-69
2022/06/05 04:10:26;;;;;;;3.75;3.55;;;21.90;73.00;;;;;;5076150;28;20177;-69
2022/06/05 04:12:52;;;;;;;3.45;3.25;;;21.90;73.00;;;;;;5076503;28;20315;-69
2022/06/05 04:15:18;;;;;;;3.63;3.38;;;21.90;73.00;;;;;;5076329;28;20177;-69
2022/06/05 04:17:44;;;;;;;3.80;3.50;;;21.80;73.00;;;;;;5092963;28;20204;-69
2022/06/05 04:20:12;;;;;;;4.15;3.75;;;21.90;73.10;;;;;;5075693;28;20184;-69
2022/06/05 04:22:40;;;;;;;4.10;3.80;;;21.90;73.10;;;;;;5076435;28;20219;-69
2022/06/05 04:25:13;;;;;;;4.28;3.88;;;21.90;73.80;;;;;;5075817;28;20222;-69
2022/06/05 04:27:40;;;;;;;4.32;4.03;;;21.80;73.00;;;;;;5076348;28;20216;-69
2022/06/05 04:30:06;;;;;;;4.43;4.03;;;21.80;73.00;;;;;;5075680;28;20215;-68
2022/06/05 04:32:32;;;;;;;4.38;3.97;;;21.80;73.00;;;;;;5075975;28;20216;-69
2022/06/05 04:34:58;;;;;;;3.95;3.65;;;21.90;73.10;;;;;;5092794;28;20180;-69
2022/06/05 04:37:24;;;;;;;4.05;3.75;;;21.80;72.90;;;;;;5075720;28;20339;-69
2022/06/05 04:39:49;;;;;;;3.67;3.42;;;21.90;73.00;;;;;;5092548;28;20173;-68
2022/06/05 04:42:15;;;;;;;3.97;3.67;;;21.90;73.00;;;;;;5075978;28;20271;-69
2022/06/05 04:44:41;;;;;;;3.50;3.30;;;21.90;73.70;;;;;;5091695;28;20185;-69
2022/06/05 04:47:07;;;;;;;3.53;3.33;;;21.90;73.00;;;;;;5075551;28;20294;-69
2022/06/05 04:49:35;;;;;;;3.45;3.25;;;21.90;72.90;;;;;;5092945;28;20219;-69
2022/06/05 04:52:02;;;;;;;3.38;3.08;;;21.90;72.90;;;;;;5075063;28;20688;-69
2022/06/05 04:54:28;;;;;;;3.50;3.30;;;21.80;72.80;;;;;;5075756;28;20185;-70
2022/06/05 04:56:53;;;;;;;3.50;3.20;;;21.90;72.80;;;;;;5075429;28;20242;-69
2022/06/05 04:59:19;;;;;;;3.67;3.40;;;21.80;72.70;;;;;;5092511;28;20241;-69
2022/06/05 05:01:45;;;;;;;3.88;3.58;;;21.90;72.80;;;;;;5075140;28;20200;-69
2022/06/05 05:04:14;;;;;;;3.33;3.13;;;21.80;72.70;;;;;;5075305;28;20271;-69
2022/06/05 05:06:43;;;;;;;3.70;3.40;;;21.90;72.70;;;;;;5075939;28;20185;-68
2022/06/05 05:09:10;;;;;;;3.67;3.38;;;21.90;72.80;;;;;;5075314;28;20234;-68
2022/06/05 05:11:37;;;;;;;3.85;3.50;;;21.80;72.60;;;;;;5074761;28;20215;-69
2022/06/05 05:14:04;;;;;;;3.72;3.35;;;21.80;72.60;;;;;;5075477;28;20209;-69
2022/06/05 05:16:31;;;;;;;3.85;3.55;;;21.90;72.80;;;;;;5075086;28;20177;-68
2022/06/05 05:18:57;;;;;;;3.50;3.30;;;21.90;72.70;;;;;;5075150;28;20272;-69
2022/06/05 05:21:25;;;;;;;3.47;3.28;;;21.80;72.60;;;;;;5074832;28;20185;-68
2022/06/05 05:23:52;;;;;;;3.83;3.53;;;21.80;72.60;;;;;;5075413;28;20181;-69
2022/06/05 05:26:32;;;;;;;4.10;3.80;;;21.90;72.80;;;;;;5074863;28;20184;-69
2022/06/05 05:29:00;;;;;;;3.50;3.20;;;21.90;72.80;;;;;;5075030;28;20557;-69
2022/06/05 05:31:37;;;;;;;3.38;3.17;;;21.90;72.70;;;;;;5074433;28;20201;-69
2022/06/05 05:34:05;;;;;;;3.75;3.45;;;21.90;72.80;;;;;;5074871;28;20169;-69
2022/06/05 05:36:31;;;;;;;3.50;3.30;;;21.90;72.80;;;;;;5074904;28;20176;-69
2022/06/05 05:44:31;;;;;;;4.38;3.97;;;21.90;73.40;;;;;;5108608;28;20267;-69
2022/06/05 05:46:56;;;;;;;3.88;3.58;;;21.80;73.10;;;;;;5091805;28;20188;-69
2022/06/05 05:49:22;;;;;;;4.28;3.90;;;21.80;73.20;;;;;;5091777;28;20176;-69
2022/06/05 05:51:48;;;;;;;4.13;3.78;;;21.90;73.30;;;;;;5074466;28;20318;-69
2022/06/05 05:54:14;;;;;;;4.45;4.15;;;21.90;73.20;;;;;;5074747;28;20172;-69
2022/06/05 05:56:40;;;;;;;4.47;4.07;;;21.80;73.30;;;;;;5074496;28;20350;-69
2022/06/05 05:59:06;;;;;;;3.90;3.60;;;21.80;73.30;;;;;;5075025;28;20183;-69
2022/06/05 06:01:33;;;;;;;3.40;3.20;;;21.90;73.60;;;;;;5074019;28;20281;-69
2022/06/05 06:03:59;;;;;;;3.60;3.30;;;21.80;73.40;;;;;;5058437;28;20220;-69
2022/06/05 06:06:35;;;;;;;4.20;3.67;;;21.80;73.40;;;;;;5071023;28;20213;-69
2022/06/05 06:09:02;;;;;;;3.58;3.15;;;21.90;73.60;;;;;;5054545;28;20192;-69
2022/06/05 06:11:28;;;;;;;3.20;3.00;;;21.80;73.30;;;;;;5054180;28;20213;-69
2022/06/05 06:13:54;;;;;;;3.67;3.47;;;21.90;73.60;;;;;;5071051;28;20174;-69
2022/06/05 06:16:20;;;;;;;3.40;3.20;;;21.90;73.60;;;;;;5054403;28;20185;-69
2022/06/05 06:18:46;;;;;;;3.05;2.85;;;21.90;73.50;;;;;;5054386;28;20201;-69
2022/06/05 06:21:13;;;;;;;3.60;3.40;;;21.90;73.40;;;;;;5054095;28;20547;-69
2022/06/05 06:23:39;;;;;;;3.17;2.97;;;21.80;73.30;;;;;;5054163;28;20192;-69
2022/06/05 06:26:07;;;;;;;3.25;3.05;;;21.80;73.20;;;;;;5070965;28;20653;-69
2022/06/05 06:28:33;;;;;;;3.30;3.00;;;21.80;73.30;;;;;;5054301;28;20280;-69
2022/06/05 06:31:05;;;;;;;3.05;2.85;;;21.90;73.50;;;;;;5054049;28;20347;-69
2022/06/05 06:33:31;;;;;;;4.00;3.70;;;21.80;73.30;;;;;;5060898;28;20173;-69
2022/06/05 06:36:03;;;;;;;3.10;2.80;;;21.80;73.20;;;;;;5058870;28;20165;-69
2022/06/05 06:38:29;;;;;;;3.10;2.90;;;21.80;73.10;;;;;;5074185;28;20209;-69
2022/06/05 06:41:05;;;;;;;2.78;2.55;;;21.80;73.10;;;;;;5073636;28;20246;-69
2022/06/05 06:43:33;;;;;;;2.55;2.35;;;21.90;73.10;;;;;;5071010;28;20177;-69
2022/06/05 06:45:59;;;;;;;3.00;2.80;;;21.80;72.90;;;;;;5054382;28;20178;-69
2022/06/05 06:48:27;;;;;;;3.10;2.80;;;21.80;72.90;;;;;;5054120;28;20714;-70
2022/06/05 06:50:55;;;;;;;3.05;2.85;;;21.80;72.90;;;;;;5053558;28;20288;-69
2022/06/05 06:53:22;;;;;;;2.60;2.50;;;21.80;72.90;;;;;;5058742;28;20203;-69
2022/06/05 06:55:50;;;;;;;3.00;2.80;;;21.80;72.80;;;;;;5054055;28;20185;-69
2022/06/05 06:58:17;;;;;;;2.67;2.47;;;21.80;72.70;;;;;;5054088;28;20224;-69
2022/06/05 07:00:44;;;;;;;3.10;2.80;;;21.80;72.80;;;;;;5055965;28;20185;-69
2022/06/05 07:03:10;;;;;;;2.33;2.22;;;21.80;72.80;;;;;;5090150;28;20185;-69
2022/06/05 07:05:36;;;;;;;3.10;2.80;;;21.80;72.60;;;;;;5073887;28;20189;-69
2022/06/05 07:08:04;;;;;;;2.20;2.10;;;21.80;72.90;;;;;;5076746;28;20197;-69
2022/06/05 07:10:30;;;;;;;2.65;2.47;;;21.80;73.00;;;;;;5077124;28;20176;-69
2022/06/05 07:12:56;;;;;;;3.28;3.08;;;21.80;72.90;;;;;;5077495;28;20173;-69
2022/06/05 07:15:22;;;;;;;2.40;2.30;;;21.80;72.60;;;;;;5077471;28;20644;-69
2022/06/05 07:17:48;;;;;;;2.25;2.15;;;21.80;72.70;;;;;;5077292;28;20226;-69
2022/06/05 07:20:15;;;;;;;2.28;2.17;;;21.80;72.50;;;;;;5076726;28;20173;-68
2022/06/05 07:22:41;;;;;;;2.95;2.50;;;21.80;73.20;;;;;;5077305;28;20188;-69
2022/06/05 07:25:07;;;;;;;1.88;1.77;;;21.80;72.60;;;;;;5076957;28;20181;-69
2022/06/05 07:27:34;;;;;;;3.65;1.80;;;21.80;72.60;;;;;;5077370;28;20201;-69
2022/06/05 07:29:59;;;;;;;1.77;1.67;;;21.80;72.70;;;;;;5077105;28;20190;-69
2022/06/05 07:32:25;;;;;;;2.97;2.10;;;21.80;72.70;;;;;;5076382;28;20204;-69
2022/06/05 07:34:51;;;;;;;2.10;2.00;;;21.80;72.60;;;;;;5077002;28;20267;-69
2022/06/05 07:37:17;;;;;;;1.90;1.80;;;21.80;72.80;;;;;;5077161;28;20347;-69
2022/06/05 07:39:44;;;;;;;2.47;2.20;;;21.80;73.00;;;;;;5065888;28;20267;-69
2022/06/05 07:42:11;;;;;;;2.30;2.10;;;21.80;72.90;;;;;;5072986;28;20196;-69
2022/06/05 07:44:37;;;;;;;1.80;1.70;;;21.80;73.10;;;;;;5056808;28;20178;-69
2022/06/05 07:47:08;;;;;;;2.00;1.90;;;21.80;73.30;;;;;;5056674;28;20213;-69
2022/06/05 07:49:39;;;;;;;2.60;1.85;;;21.80;73.40;;;;;;5090325;28;20184;-69
2022/06/05 07:54:51;;;;;;;1.80;1.70;;;21.90;74.20;;;;;;5073363;28;20166;-69
2022/06/05 07:57:20;;;;;;;2.08;1.98;;;21.90;73.80;;;;;;5085621;28;20200;-69
2022/06/05 07:59:49;;;;;;;2.78;2.08;;;21.90;74.20;;;;;;5056504;28;20184;-69
2022/06/05 08:02:23;;;;;;;1.92;1.60;;;21.90;73.80;;;;;;5056144;28;20206;-69
2022/06/05 08:04:51;;;;;;;1.90;1.65;;;21.90;73.40;;;;;;5056808;28;20220;-69
2022/06/05 08:07:22;;;;;;;1.80;1.70;;;21.90;73.20;;;;;;5069829;28;20204;-69
2022/06/05 08:09:49;;;;;;;2.25;2.05;;;21.90;73.10;;;;;;5090033;28;20169;-68
2022/06/05 08:12:19;;;;;;;2.03;1.83;;;22.00;73.20;;;;;;5055578;28;20233;-69
2022/06/05 08:14:49;;;;;;;1.60;1.50;;;22.00;73.10;;;;;;5057197;28;20197;-69
2022/06/05 08:17:26;;;;;;;1.63;1.52;;;22.00;73.10;;;;;;5075727;28;20217;-69
2022/06/05 08:19:52;;;;;;;1.85;1.75;;;22.00;73.50;;;;;;5076524;28;20185;-69
2022/06/05 08:22:21;;;;;;;2.17;1.75;;;22.00;73.50;;;;;;5075693;28;20246;-69
2022/06/05 08:24:48;;;;;;;2.65;1.73;;;22.00;74.10;;;;;;5076481;28;20187;-69
2022/06/05 08:27:18;;;;;;;1.60;1.50;;;22.00;73.80;;;;;;5076050;28;20205;-69
2022/06/05 08:29:45;;;;;;;1.98;1.73;;;22.00;73.80;;;;;;5092995;28;20259;-69
2022/06/05 08:32:13;;;;;;;1.80;1.67;;;22.00;73.50;;;;;;5076660;28;20201;-69
2022/06/05 08:34:40;;;;;;;1.73;1.63;;;22.00;74.40;;;;;;5096519;28;20184;-69
2022/06/05 08:43:13;;;;;;;1.60;1.50;;;22.00;73.60;;;;;;5092103;28;20181;-69
2022/06/05 08:46:29;;;;;;;2.08;1.40;;;22.00;73.70;;;;;;5076029;28;20259;-69
2022/06/05 08:49:21;;;;;;;2.10;1.67;;;22.00;75.00;;;;;;5075707;28;20215;-69
2022/06/05 08:52:17;;;;;;;1.50;1.40;;;22.00;74.30;;;;;;5091995;28;20197;-69
2022/06/05 08:54:53;;;;;;;1.83;1.55;;;22.10;73.90;;;;;;5075612;28;20620;-69
2022/06/05 08:57:54;;;;;;;1.38;1.27;;;22.10;74.40;;;;;;5092000;28;20196;-69
2022/06/05 09:00:41;;;;;;;1.30;1.20;;;22.10;76.00;;;;;;5074336;28;20185;-69
2022/06/05 09:03:22;;;;;;;1.48;1.27;;;22.10;75.20;;;;;;5075216;28;20183;-69
2022/06/05 09:05:54;;;;;;;2.47;1.50;;;22.10;75.20;;;;;;5075581;28;20185;-69
2022/06/05 09:08:28;;;;;;;1.45;1.35;;;22.10;75.40;;;;;;5075308;28;20197;-69
2022/06/05 09:11:00;;;;;;;1.40;1.30;;;22.10;75.20;;;;;;5063802;28;20203;-69
2022/06/05 09:13:45;;;;;;;2.10;1.70;;;22.10;75.20;;;;;;5066300;28;20186;-69
2022/06/05 09:16:29;;;;;;;1.83;1.40;;;22.10;77.20;;;;;;5055352;28;20169;-69
2022/06/05 09:18:57;;;;;;;2.42;1.58;;;22.10;77.20;;;;;;5055017;28;20618;-69
2022/06/05 09:21:42;;;;;;;1.40;1.30;;;22.10;75.90;;;;;;5054447;28;20182;-69
2022/06/05 09:25:18;;;;;;;1.58;1.40;;;22.10;75.70;;;;;;5054686;28;20194;-69
2022/06/05 09:28:10;;;;;;;1.65;1.40;;;22.10;76.00;;;;;;5048075;28;20217;-69
2022/06/05 09:30:51;;;;;;;1.70;1.50;;;22.10;76.20;;;;;;5053774;28;20173;-69
2022/06/05 09:33:31;;;;;;;2.05;1.30;;;22.10;76.50;;;;;;5071387;28;20165;-69
2022/06/05 09:36:03;;;;;;;1.63;1.40;;;22.20;76.00;;;;;;5054795;28;20170;-69
2022/06/05 09:38:46;;;;;;;1.35;1.20;;;22.10;76.00;;;;;;5054585;28;20221;-69
2022/06/05 09:41:12;;;;;;;2.17;1.50;;;22.10;75.80;;;;;;5054246;28;20173;-69
2022/06/05 09:43:50;;;;;;;1.50;1.40;;;22.10;76.90;;;;;;5054729;28;20178;-69
2022/06/05 09:46:34;;;;;;;2.15;1.42;;;22.10;76.60;;;;;;5054496;28;20220;-69
2022/06/05 09:49:16;;;;;;;1.80;1.40;;;22.10;77.40;;;;;;5054924;28;20275;-69
2022/06/05 09:51:44;;;;;;;1.77;1.50;;;22.10;77.00;;;;;;5054151;28;20255;-69
2022/06/05 09:54:32;;;;;;;3.60;1.40;;;22.10;77.10;;;;;;5055013;28;20170;-69
2022/06/05 10:00:36;;;;;;;1.67;1.30;;;22.10;76.40;;;;;;5088356;28;20218;-69
2022/06/05 10:03:11;;;;;;;1.30;1.20;;;22.10;76.50;;;;;;5074669;28;20173;-70
2022/06/05 10:05:45;;;;;;;1.95;1.40;;;22.10;77.40;;;;;;5091808;28;20266;-69
2022/06/05 10:08:11;;;;;;;6.38;1.30;;;22.10;77.50;;;;;;5074451;28;20224;-69
2022/06/05 10:10:40;;;;;;;2.38;1.50;;;22.10;77.80;;;;;;5090883;28;20241;-69
2022/06/05 10:13:50;;;;;;;1.95;1.60;;;22.10;77.80;;;;;;5091206;28;20718;-70
2022/06/05 10:16:47;;;;;;;1.63;1.52;;;22.10;77.00;;;;;;5074632;28;20188;-69
2022/06/05 10:19:41;;;;;;;1.70;1.60;;;22.10;78.10;;;;;;5074755;28;20242;-69
2022/06/05 10:22:39;;;;;;;2.22;1.30;;;22.10;77.80;;;;;;5073705;28;20176;-70
2022/06/05 10:25:27;;;;;;;1.40;1.30;;;22.10;78.50;;;;;;5074381;28;20184;-69
2022/06/05 10:28:05;;;;;;;1.80;1.70;;;22.10;77.90;;;;;;5074238;28;20235;-69
2022/06/05 10:30:39;;;;;;;1.42;1.33;;;22.10;78.00;;;;;;5073820;28;20176;-69
2022/06/05 10:33:29;;;;;;;1.75;1.25;;;22.10;77.80;;;;;;5067516;28;20189;-69
2022/06/05 10:36:08;;;;;;;1.60;1.50;;;22.10;77.40;;;;;;5073286;28;20185;-69
2022/06/05 10:39:07;;;;;;;2.72;1.75;;;22.10;77.90;;;;;;5074357;28;20208;-68
2022/06/05 10:41:42;;;;;;;1.90;1.40;;;22.10;77.90;;;;;;5076223;28;20176;-69
2022/06/05 10:44:22;;;;;;;1.92;1.40;;;22.10;77.60;;;;;;5094995;28;20176;-69
2022/06/05 10:46:51;;;;;;;1.40;1.30;;;22.10;77.80;;;;;;5077989;28;20208;-70
2022/06/05 10:49:32;;;;;;;1.75;1.50;;;22.10;78.80;;;;;;5077800;28;20563;-70
2022/06/05 10:53:12;;;;;;;2.17;1.38;;;22.00;79.10;;;;;;5074149;28;20193;-69
2022/06/05 10:56:12;;;;;;;1.45;1.35;;;22.10;78.90;;;;;;5013957;28;20191;-69
2022/06/05 10:58:51;;;;;;;1.40;1.30;;;22.10;78.40;;;;;;4978427;28;20211;-69
2022/06/05 11:01:22;;;;;;;2.63;1.80;;;22.10;80.60;;;;;;5090606;28;20200;-69
2022/06/05 11:04:16;;;;;;;1.70;1.60;;;22.10;79.60;;;;;;5074400;28;20610;-70
2022/06/05 11:07:13;;;;;;;1.55;1.45;;;22.10;79.70;;;;;;5075633;28;20189;-70
2022/06/05 11:10:15;;;;;;;2.30;1.80;;;22.10;79.60;;;;;;5077530;28;20540;-69
2022/06/05 11:16:33;;;;;;;1.23;1.23;;;22.10;79.10;;;;;;5111696;28;20173;-70
2022/06/05 11:19:27;;;;;;;1.90;1.63;;;22.00;79.00;;;;;;5077560;28;20169;-70
2022/06/05 11:21:58;;;;;;;2.88;1.60;;;22.00;79.40;;;;;;5076910;28;20177;-69
2022/06/05 11:24:31;;;;;;;2.00;1.80;;;22.00;79.30;;;;;;5077572;28;20633;-69
2022/06/05 11:27:15;;;;;;;2.15;1.67;;;22.00;79.30;;;;;;5077466;28;20211;-69
2022/06/05 11:30:04;;;;;;;1.73;1.63;;;22.00;79.10;;;;;;5077270;28;20177;-69
2022/06/05 11:32:38;;;;;;;1.85;1.55;;;22.10;79.10;;;;;;5076628;28;20209;-69
2022/06/05 11:35:15;;;;;;;1.88;1.42;;;22.00;79.00;;;;;;5077308;28;20164;-69
2022/06/05 11:38:00;;;;;;;2.17;1.80;;;22.00;78.90;;;;;;5111264;28;20201;-69
2022/06/05 11:41:09;;;;;;;1.65;1.30;;;22.00;79.20;;;;;;5077522;28;20176;-69
2022/06/05 11:43:41;;;;;;;1.58;1.45;;;22.00;79.20;;;;;;5093569;28;20195;-69
2022/06/05 11:46:21;;;;;;;2.03;1.30;;;22.00;78.90;;;;;;5076386;28;20196;-69
2022/06/05 11:49:20;;;;;;;2.35;1.40;;;22.00;78.70;;;;;;5072070;28;20600;-69
2022/06/05 11:52:18;;;;;;;1.45;1.33;;;22.00;78.70;;;;;;5088337;28;20231;-69
2022/06/05 11:54:58;;;;;;;1.60;1.50;;;22.00;78.80;;;;;;5094064;28;20191;-70
2022/06/05 11:57:55;;;;;;;2.05;1.50;;;22.00;78.80;;;;;;5077943;28;20197;-70
2022/06/05 12:00:36;;;;;;;1.92;1.70;;;22.00;78.80;;;;;;5094377;28;20180;-70
2022/06/05 12:03:19;;;;;;;2.45;1.70;;;22.00;78.40;;;;;;5077545;28;20177;-69
2022/06/05 12:06:18;;;;;;;2.63;1.30;;;22.00;78.40;;;;;;5077860;28;20180;-70
2022/06/05 12:08:55;;;;;;;2.25;1.40;;;22.10;78.60;;;;;;5094262;28;20288;-70
2022/06/05 12:11:41;;;;;;;1.40;1.30;;;22.10;79.00;;;;;;5076881;28;20325;-69
2022/06/05 12:14:13;;;;;;;2.08;1.48;;;22.10;79.10;;;;;;5076814;28;20180;-70
2022/06/05 12:17:19;;;;;;;1.55;1.45;;;22.10;79.00;;;;;;5076748;28;20177;-69
2022/06/05 12:20:09;;;;;;;1.52;1.40;;;22.10;79.00;;;;;;5065697;28;20195;-69
2022/06/05 12:22:48;;;;;;;2.70;1.48;;;22.00;79.00;;;;;;5093569;28;20195;-69
2022/06/05 12:25:52;;;;;;;1.50;1.40;;;22.10;79.20;;;;;;5073214;28;20186;-69
2022/06/05 12:29:13;;;;;;;2.28;1.75;;;22.10;79.60;;;;;;5056489;28;20299;-69
2022/06/05 12:32:00;;;;;;;1.92;1.42;;;22.10;79.90;;;;;;5058519;28;20224;-70
2022/06/05 12:34:37;;;;;;;1.75;1.48;;;22.10;79.60;;;;;;5056249;28;20174;-70
2022/06/05 12:37:52;;;;;;;2.67;1.55;;;22.10;79.60;;;;;;5104738;28;20206;-70
2022/06/05 12:40:28;;;;;;;1.70;1.40;;;22.10;78.90;;;;;;5090918;28;20181;-70
2022/06/05 12:43:05;;;;;;;1.95;1.38;;;22.10;79.10;;;;;;5073952;28;20186;-69
2022/06/05 12:45:33;;;;;;;1.85;1.30;;;22.10;79.20;;;;;;5074053;28;20632;-70
2022/06/05 12:48:23;;;;;;;2.30;1.42;;;22.10;79.30;;;;;;5074322;28;20581;-70
2022/06/05 12:51:02;;;;;;;1.45;1.33;;;22.10;79.30;;;;;;5073138;28;20173;-69
2022/06/05 12:53:49;;;;;;;2.75;1.20;;;22.10;79.40;;;;;;5073542;28;20283;-70
2022/06/05 12:56:50;;;;;;;2.42;1.40;;;22.10;79.90;;;;;;5074119;28;20173;-70
2022/06/05 12:59:40;;;;;;;1.38;1.27;;;22.10;79.10;;;;;;5073928;28;20169;-70
2022/06/05 13:02:40;;;;;;;2.55;1.55;;;22.10;79.20;;;;;;5070389;28;20246;-70
2022/06/05 13:05:32;;;;;;;1.20;1.10;;;22.10;79.40;;;;;;5070367;28;20285;-69
2022/06/05 13:08:42;;;;;;;2.15;1.35;;;22.10;79.30;;;;;;5066559;28;20209;-70
2022/06/05 13:11:49;;;;;;;1.40;1.23;;;22.10;78.80;;;;;;5076545;28;20215;-69
2022/06/05 13:14:52;;;;;;;1.77;1.30;;;22.10;78.80;;;;;;5022704;28;20284;-71
2022/06/05 13:17:51;;;;;;;1.90;1.13;;;22.10;79.70;;;;;;5070077;28;20692;-69
2022/06/05 13:20:34;;;;;;;2.00;1.63;;;22.10;79.00;;;;;;5053167;28;20178;-69
2022/06/05 13:23:17;;;;;;;3.50;1.42;;;22.10;79.10;;;;;;5052719;28;20243;-70
2022/06/05 13:25:59;;;;;;;1.33;1.20;;;22.10;79.30;;;;;;5069838;28;20189;-70
2022/06/05 13:28:43;;;;;;;1.60;1.50;;;22.10;79.80;;;;;;5052931;28;20210;-70
2022/06/05 13:31:33;;;;;;;2.20;1.30;;;22.10;79.30;;;;;;5070457;28;20320;-69
2022/06/05 13:34:26;;;;;;;2.85;1.42;;;22.10;79.20;;;;;;5070271;28;20205;-70
2022/06/05 13:37:11;;;;;;;2.40;1.20;;;22.10;79.10;;;;;;5070366;28;20202;-70
2022/06/05 13:39:58;;;;;;;1.55;1.20;;;22.10;79.00;;;;;;5070739;28;20177;-69
2022/06/05 13:42:25;;;;;;;1.85;1.20;;;22.10;79.20;;;;;;5052732;28;20184;-70
2022/06/05 13:45:21;;;;;;;1.60;1.17;;;22.10;80.00;;;;;;5070080;28;20644;-70
2022/06/05 13:48:04;;;;;;;1.33;1.00;;;22.10;79.50;;;;;;5070098;28;20209;-69
2022/06/05 13:51:03;;;;;;;1.52;1.10;;;22.10;79.10;;;;;;5054003;28;20242;-70
2022/06/05 13:53:59;;;;;;;0.88;0.88;;;22.10;79.00;;;;;;5050915;28;20653;-69
2022/06/05 13:56:49;;;;;;;1.17;1.05;;;22.10;79.80;;;;;;5055298;28;20208;-69
2022/06/05 13:59:33;;;;;;;1.05;1.00;;;22.10;79.80;;;;;;5088582;28;20177;-69
2022/06/05 14:02:24;;;;;;;1.70;1.00;;;22.10;79.30;;;;;;5053986;28;20193;-70